Data for 11/06/2006

Time Sea-Level Adjusted Pressure Absolute Pressure Temperature Relative Humidity Dew Point   
(mb) (inHg) (mb) (inHg) (C) (F) (%) (C) (F)
00:05 1020 30.12 849 25.07 5.1 41.1 54 -3.6 25.6
00:10 1020 30.12 849 25.07 5.1 41.2 52 -4 24.8
00:15 1020 30.12 849 25.07 6.1 42.9 49 -3.7 25.3
00:20 1020 30.12 849 25.07 6.6 43.9 46 -4.3 24.3
00:25 1020 30.12 849 25.07 7.3 45.1 45 -3.7 25.3
00:30 1020 30.12 849 25.07 7.6 45.7 44 -3.9 24.9
00:35 1020 30.12 849 25.07 7.9 46.2 43 -4 24.9
00:40 1020 30.12 849 25.07 8 46.4 44 -3.5 25.7
00:45 1020 30.12 849 25.07 7.8 46 44 -3.7 25.4
00:50 1020 30.12 849 25.07 7.8 46.1 45 -3.5 25.8
00:55 1020 30.12 849 25.07 7.7 45.8 45 -3.4 25.8
01:00 1020 30.12 849 25.07 7.3 45.2 46 -3.6 25.5
01:05 1020 30.12 849 25.07 7 44.7 47 -3.5 25.6
01:10 1020 30.12 849 25.07 6.7 44.1 47 -3.8 25.2
01:15 1020 30.12 849 25.07 6.9 44.4 46 -3.9 24.9
01:20 1020 30.12 849 25.07 7 44.5 46 -3.8 25.2
01:25 1020 30.12 849 25.07 6.9 44.3 46 -4 24.9
01:30 1020 30.12 849 25.07 6.7 44.1 48 -3.5 25.7
01:35 1020 30.12 849 25.07 6.5 43.7 47 -4.1 24.7
01:40 1020 30.12 849 25.07 6.8 44.2 47 -3.7 25.4
01:45 1020 30.12 849 25.07 7.1 44.8 45 -4.1 24.5
01:50 1020 30.12 849 25.07 7.9 46.2 43 -3.8 25.2
01:55 1020 30.12 849 25.07 8.1 46.6 44 -3.5 25.7
02:00 1019 30.09 849 25.07 7.9 46.2 44 -3.6 25.5
02:05 1019 30.09 849 25.07 8.6 47.5 43 -3.2 26.2
02:10 1020 30.12 849 25.07 8.7 47.6 40 -4 24.7
02:15 1019 30.09 849 25.07 9.2 48.5 40 -3.8 25.1
02:20 1019 30.09 849 25.07 9.1 48.4 41 -3.3 26
02:25 1019 30.09 848 25.04 8.9 48.1 42 -3.2 26.2
02:30 1019 30.09 848 25.04 8.9 47.9 43 -2.9 26.7
02:35 1019 30.09 848 25.04 8.4 47 47 -2.3 27.9
02:40 1019 30.09 849 25.07 7.7 45.8 47 -2.8 26.9
02:45 1019 30.09 849 25.07 8 46.3 46 -2.9 26.9
02:50 1020 30.12 849 25.07 8.3 47 45 -2.8 26.9
02:55 1019 30.09 849 25.07 8.5 47.3 46 -2.5 27.4
03:00 1019 30.09 849 25.07 8.6 47.4 46 -2.5 27.5
03:05 1019 30.09 849 25.07 8.7 47.7 45 -2.5 27.6
03:10 1019 30.09 849 25.07 8.9 47.9 45 -2.3 27.8
03:15 1019 30.09 849 25.07 8.8 47.9 45 -2.4 27.7
03:20 1019 30.09 849 25.07 8.9 47.9 45 -2.3 27.9
03:25 1019 30.09 849 25.07 9 48.2 45 -2.4 27.7
03:30 1019 30.09 848 25.04 9.4 48.9 45 -2 28.4
03:35 1019 30.09 849 25.07 8.7 47.7 49 -1.5 29.3
03:40 1019 30.09 849 25.07 8.2 46.8 50 -1.6 29
03:45 1019 30.09 848 25.04 7.9 46.2 51 -1.7 29
03:50 1019 30.09 848 25.04 7.7 45.8 49 -2.3 27.9
03:55 1019 30.09 848 25.04 8.2 46.8 48 -2.1 28.1
04:00 1019 30.09 848 25.04 8.5 47.4 50 -1.4 29.5
04:05 1019 30.09 848 25.04 8.5 47.4 48 -1.9 28.6
04:10 1019 30.09 848 25.04 8.4 47.1 49 -1.6 29.1
04:15 1019 30.09 848 25.04 8.2 46.7 51 -1.3 29.6
04:20 1019 30.09 848 25.04 7.9 46.2 54 -0.9 30.5
04:25 1019 30.09 848 25.04 8 46.3 50 -1.7 28.9
04:30 1019 30.09 848 25.04 8.4 47.1 51 -1.2 29.9
04:35 1019 30.09 848 25.04 8.4 47 52 -0.8 30.6
04:40 1019 30.09 848 25.04 8 46.3 54 -0.7 30.7
04:45 1019 30.09 848 25.04 7.6 45.7 57 -0.5 31.2
04:50 1019 30.09 848 25.04 7.3 45.1 57 -0.7 30.7
04:55 1019 30.09 848 25.04 7 44.7 58 -0.7 30.7
05:00 1019 30.09 848 25.04 6.9 44.4 58 -0.8 30.5
05:05 1019 30.09 848 25.04 7 44.7 57 -0.9 30.5
05:10 1019 30.09 848 25.04 7.3 45.1 56 -0.8 30.6
05:15 1019 30.09 848 25.04 7.4 45.3 55 -1.1 30.1
05:20 1019 30.09 848 25.04 7.6 45.6 55 -0.9 30.4
05:25 1019 30.09 848 25.04 7.7 45.9 54 -0.9 30.3
05:30 1019 30.09 848 25.04 7.9 46.1 53 -1 30.2
05:35 1019 30.09 848 25.04 8.5 47.3 51 -0.9 30.3
05:40 1019 30.09 848 25.04 8.6 47.5 54 -0.2 31.6
05:45 1019 30.09 848 25.04 9 48.2 51 -0.4 31.2
05:50 1018 30.06 848 25.04 9.4 48.9 51 -0.2 31.7
05:55 1018 30.06 848 25.04 9.2 48.5 54 0.3 32.5
06:00 1018 30.06 847 25.01 8.5 47.3 56 0.2 32.3
06:05 1018 30.06 847 25.01 8.1 46.6 60 0.8 33.4
06:10 1018 30.06 847 25.01 7.9 46.3 60 0.6 33.1
06:15 1018 30.06 847 25.01 8 46.4 58 0.3 32.5
06:20 1018 30.06 847 25.01 8.5 47.3 56 0.2 32.3
06:25 1018 30.06 847 25.01 9.1 48.3 55 0.4 32.8
06:30 1018 30.06 848 25.04 9.7 49.4 54 0.8 33.5
06:35 1018 30.06 847 25.01 10 50 54 1.1 34
06:40 1018 30.06 848 25.04 10.2 50.4 54 1.3 34.4
06:45 1018 30.06 848 25.04 10.2 50.3 56 1.8 35.2
06:50 1018 30.06 848 25.04 10 50 56 1.7 35.1
06:55 1018 30.06 847 25.01 10.1 50.2 56 1.9 35.4
07:00 1018 30.06 847 25.01 10.4 50.7 55 1.9 35.4
07:05 1018 30.06 847 25.01 11 51.8 54 2 35.6
07:10 1018 30.06 847 25.01 11.4 52.5 52 1.9 35.5
07:15 1018 30.06 847 25.01 11.7 53 51 2 35.6
07:20 1018 30.06 847 25.01 11.8 53.2 51 2.1 35.8
07:25 1018 30.06 847 25.01 11.9 53.4 50 1.9 35.4
07:30 1018 30.06 847 25.01 12.2 53.9 50 2.2 35.9
07:35 1018 30.06 848 25.04 12.1 53.9 50 2.1 35.8
07:40 1018 30.06 848 25.04 12.2 54 50 2.2 36
07:45 1018 30.06 847 25.01 12.2 53.9 51 2.4 36.4
07:50 1018 30.06 847 25.01 12 53.6 51 2.4 36.3
07:55 1018 30.06 848 25.04 12 53.6 52 2.5 36.4
08:00 1018 30.06 847 25.01 12.1 53.8 51 2.4 36.4
08:05 1018 30.06 847 25.01 12.2 53.9 51 2.4 36.2
08:10 1018 30.06 847 25.01 12.5 54.5 50 2.3 36.2
08:15 1018 30.06 847 25.01 12.7 54.8 50 2.5 36.6
08:20 1018 30.06 847 25.01 12.7 54.9 50 2.5 36.5
08:25 1018 30.06 847 25.01 12.9 55.2 49 2.4 36.4
08:30 1018 30.06 847 25.01 13 55.4 49 2.7 36.9
08:35 1018 30.06 847 25.01 13.1 55.5 49 2.5 36.6
08:40 1018 30.06 847 25.01 13.3 55.9 49 2.8 37.1
08:45 1018 30.06 847 25.01 13.3 56 49 2.8 37.1
08:50 1018 30.06 847 25.01 13.5 56.2 48 2.7 36.8
08:55 1018 30.06 847 25.01 13.6 56.5 47 2.7 36.8
09:00 1018 30.06 847 25.01 13.6 56.6 47 2.5 36.6
09:05 1018 30.06 848 25.04 13.7 56.7 47 2.6 36.8
09:10 1018 30.06 848 25.04 13.7 56.7 47 2.7 36.9
09:15 1018 30.06 848 25.04 13.8 56.8 46 2.5 36.5
09:20 1018 30.06 848 25.04 14 57.1 46 2.7 36.8
09:25 1018 30.06 848 25.04 14.1 57.4 47 3 37.4
09:30 1018 30.06 848 25.04 14.2 57.6 47 3 37.4
09:35 1018 30.06 848 25.04 14.3 57.7 47 3.1 37.5
09:40 1018 30.06 848 25.04 14.4 57.9 46 3 37.4
09:45 1018 30.06 848 25.04 14.5 58 46 3.1 37.5
09:50 1018 30.06 848 25.04 14.5 58.1 46 3.1 37.6
09:55 1018 30.06 848 25.04 14.5 58.2 45 3 37.3
10:00 1018 30.06 848 25.04 14.6 58.3 46 3.1 37.6
10:05 1018 30.06 848 25.04 14.6 58.3 45 2.9 37.3
10:10 1018 30.06 848 25.04 14.7 58.5 45 2.9 37.2
10:15 1018 30.06 847 25.01 14.8 58.6 45 3.1 37.6
10:20 1018 30.06 847 25.01 14.8 58.6 46 3.2 37.8
10:25 1018 30.06 847 25.01 14.9 58.8 45 3.1 37.5
10:30 1018 30.06 848 25.04 15 59 45 3.2 37.8
10:35 1018 30.06 848 25.04 15 59 45 3.3 38
10:40 1018 30.06 848 25.04 15 59.1 45 3.3 37.9
10:45 1018 30.06 847 25.01 15.2 59.3 44 3.1 37.7
10:50 1018 30.06 848 25.04 15.3 59.5 44 3.2 37.7
10:55 1018 30.06 848 25.04 15.3 59.6 44 3.4 38
11:00 1018 30.06 847 25.01 15.4 59.7 44 3.3 38
11:05 1018 30.06 847 25.01 15.4 59.8 44 3.3 37.9
11:10 1018 30.06 847 25.01 15.5 59.8 43 3.2 37.8
11:15 1018 30.06 847 25.01 15.5 59.9 44 3.3 38
11:20 1018 30.06 847 25.01 15.5 59.9 44 3.4 38.1
11:25 1018 30.06 848 25.04 15.5 59.9 43 3.2 37.7
11:30 1018 30.06 848 25.04 15.6 60 43 3.2 37.8
11:35 1018 30.06 848 25.04 15.6 60.1 44 3.6 38.5
11:40 1018 30.06 848 25.04 15.6 60 44 3.5 38.3
11:45 1018 30.06 848 25.04 15.5 59.9 44 3.5 38.3
11:50 1018 30.06 848 25.04 15.5 60 44 3.4 38.2
11:55 1018 30.06 847 25.01 15.7 60.2 44 3.5 38.3
12:00 1018 30.06 847 25.01 15.7 60.2 44 3.4 38.2
12:05 1018 30.06 847 25.01 15.7 60.3 44 3.6 38.4
12:10 1018 30.06 847 25.01 15.8 60.4 43 3.4 38.2
12:15 1018 30.06 847 25.01 15.8 60.5 44 3.6 38.5
12:20 1018 30.06 847 25.01 15.9 60.5 44 3.7 38.7
12:25 1018 30.06 847 25.01 15.9 60.7 43 3.6 38.5
12:30 1018 30.06 847 25.01 16 60.8 44 3.7 38.7
12:35 1018 30.06 847 25.01 16.1 61 43 3.8 38.8
12:40 1018 30.06 847 25.01 16.1 61 43 3.6 38.6
12:45 1018 30.06 847 25.01 16.1 61.1 43 3.6 38.5
12:50 1018 30.06 847 25.01 16.3 61.3 41 3.1 37.5
12:55 1018 30.06 847 25.01 16.5 61.8 41 3.2 37.8
13:00 1018 30.06 847 25.01 16.5 61.7 41 3.3 38
13:05 1018 30.06 847 25.01 16.5 61.8 41 3.3 37.9
13:10 1017 30.03 847 25.01 16.5 61.6 41 3.4 38.1
13:15 1017 30.03 847 25.01 16.5 61.7 41 3.4 38.1
13:20 1018 30.06 847 25.01 16.7 62 41 3.5 38.3
13:25 1018 30.06 847 25.01 16.7 62.1 41 3.6 38.6
13:30 1017 30.03 847 25.01 16.7 62 41 3.5 38.2
13:35 1017 30.03 847 25.01 16.6 61.9 42 3.6 38.6
13:40 1017 30.03 847 25.01 16.5 61.6 42 3.5 38.4
13:45 1017 30.03 847 25.01 16.4 61.5 42 3.6 38.5
13:50 1017 30.03 847 25.01 16.4 61.6 42 3.7 38.7
13:55 1017 30.03 847 25.01 16.5 61.6 42 3.7 38.6
14:00 1017 30.03 847 25.01 16.5 61.6 42 3.7 38.7
14:05 1017 30.03 846 24.98 16.6 61.9 42 3.7 38.7
14:10 1017 30.03 846 24.98 16.7 62 42 3.8 38.9
14:15 1017 30.03 847 25.01 16.8 62.2 41 3.7 38.7
14:20 1017 30.03 847 25.01 16.8 62.2 42 4 39.3
14:25 1017 30.03 846 24.98 16.6 61.8 43 4.1 39.4
14:30 1017 30.03 846 24.98 16.5 61.6 44 4.2 39.5
14:35 1017 30.03 846 24.98 16.4 61.6 43 4 39.1
14:40 1017 30.03 846 24.98 16.5 61.8 44 4.2 39.6
14:45 1017 30.03 846 24.98 16.6 61.8 43 4.2 39.5
14:50 1017 30.03 846 24.98 16.6 61.9 44 4.4 40
14:55 1017 30.03 846 24.98 16.6 61.9 43 4.2 39.6
15:00 1016 30 846 24.98 16.6 61.8 43 4.2 39.6
15:05 1016 30 846 24.98 16.6 61.9 44 4.3 39.7
15:10 1017 30.03 846 24.98 16.6 61.8 43 4.2 39.5
15:15 1016 30 846 24.98 16.5 61.7 43 4.1 39.5
15:20 1016 30 845 24.95 16.4 61.5 44 4.1 39.4
15:25 1016 30 845 24.95 16.4 61.5 44 4.3 39.8
15:30 1016 30 845 24.95 16.3 61.4 44 4.2 39.6
15:35 1016 30 845 24.95 16.3 61.4 44 4.2 39.6
15:40 1016 30 845 24.95 16.3 61.3 44 4 39.3
15:45 1016 30 845 24.95 16.3 61.4 44 4 39.3
15:50 1016 30 845 24.95 16.4 61.4 44 4.1 39.4
15:55 1016 30 845 24.95 16.3 61.4 44 4.2 39.5
16:00 1016 30 845 24.95 16.3 61.3 45 4.3 39.7
16:05 1016 30 845 24.95 16.1 61 45 4.3 39.7
16:10 1016 30 845 24.95 16.2 61.1 45 4.2 39.5
16:15 1016 30 845 24.95 16.2 61.2 44 4.2 39.6
16:20 1016 30 846 24.98 16.3 61.3 44 4.1 39.3
16:25 1016 30 846 24.98 16.2 61.2 45 4.4 40
16:30 1016 30 846 24.98 16.1 61 45 4.3 39.7
16:35 1016 30 846 24.98 16.2 61.2 45 4.4 40
16:40 1016 30 846 24.98 16.1 61 46 4.5 40.1
16:45 1016 30 845 24.95 16.1 61 46 4.5 40
16:50 1016 30 846 24.98 16.2 61.1 45 4.5 40.1
16:55 1016 30 846 24.98 16.2 61.1 46 4.6 40.3
17:00 1016 30 846 24.98 16.2 61.2 46 4.6 40.2
17:05 1017 30.03 846 24.98 16.2 61.2 46 4.5 40.1
17:10 1017 30.03 846 24.98 16.3 61.3 46 4.7 40.4
17:15 1017 30.03 846 24.98 16.3 61.3 45 4.6 40.2
17:20 1017 30.03 846 24.98 16.3 61.4 46 4.7 40.5
17:25 1017 30.03 846 24.98 16.3 61.3 46 4.8 40.6
17:30 1017 30.03 846 24.98 16.2 61.1 46 4.8 40.6
17:35 1016 30 846 24.98 16.2 61.2 46 4.7 40.4
17:40 1016 30 846 24.98 16.3 61.4 45 4.6 40.3
17:45 1016 30 845 24.95 16.2 61.2 46 4.6 40.3
17:50 1016 30 845 24.95 16.3 61.3 45 4.5 40.2
17:55 1016 30 845 24.95 16.3 61.3 45 4.6 40.2
18:00 1016 30 846 24.98 16.4 61.4 45 4.6 40.2
18:05 1017 30.03 846 24.98 16.3 61.3 45 4.6 40.3
18:10 1017 30.03 846 24.98 16.2 61.2 46 4.8 40.6
18:15 1017 30.03 846 24.98 16.1 61 46 4.6 40.4
18:20 1017 30.03 846 24.98 16.1 60.9 47 4.8 40.7
18:25 1017 30.03 846 24.98 16 60.7 47 4.8 40.6
18:30 1017 30.03 846 24.98 15.8 60.5 48 4.8 40.6
18:35 1017 30.03 846 24.98 15.8 60.4 48 4.9 40.8
18:40 1017 30.03 846 24.98 15.7 60.3 48 4.7 40.5
18:45 1017 30.03 846 24.98 15.8 60.4 48 4.9 40.8
18:50 1017 30.03 846 24.98 15.7 60.2 48 4.9 40.9
18:55 1017 30.03 846 24.98 15.8 60.4 47 4.6 40.3
19:00 1017 30.03 846 24.98 15.9 60.5 48 4.9 40.8
19:05 1017 30.03 846 24.98 15.8 60.4 47 4.5 40.2
19:10 1017 30.03 846 24.98 16 60.7 47 4.7 40.5
19:15 1017 30.03 846 24.98 16 60.7 47 4.8 40.6
19:20 1017 30.03 846 24.98 15.9 60.7 47 4.7 40.4
19:25 1016 30 846 24.98 16 60.9 46 4.5 40.1
19:30 1016 30 846 24.98 16 60.8 47 4.7 40.4
19:35 1017 30.03 846 24.98 15.9 60.7 47 4.6 40.3
19:40 1017 30.03 846 24.98 15.9 60.7 47 4.8 40.6
19:45 1017 30.03 846 24.98 15.8 60.5 47 4.7 40.4
19:50 1017 30.03 846 24.98 15.8 60.4 47 4.6 40.3
19:55 1017 30.03 846 24.98 15.8 60.4 47 4.6 40.4
20:00 1017 30.03 846 24.98 15.8 60.5 47 4.5 40.1
20:05 1017 30.03 846 24.98 15.9 60.7 46 4.6 40.2
20:10 1017 30.03 846 24.98 16 60.7 46 4.6 40.2
20:15 1017 30.03 846 24.98 16 60.8 46 4.5 40.1
20:20 1017 30.03 846 24.98 16.1 60.9 46 4.5 40.2
20:25 1017 30.03 846 24.98 16 60.8 46 4.5 40.1
20:30 1017 30.03 846 24.98 16.1 60.9 46 4.5 40.1
20:35 1017 30.03 846 24.98 16.1 60.9 46 4.5 40.2
20:40 1017 30.03 846 24.98 15.9 60.7 46 4.5 40.1
20:45 1017 30.03 846 24.98 15.9 60.6 47 4.7 40.4
20:50 1017 30.03 846 24.98 15.8 60.4 47 4.5 40.2
20:55 1017 30.03 846 24.98 15.9 60.5 46 4.5 40
21:00 1017 30.03 846 24.98 15.9 60.6 46 4.4 40
21:05 1017 30.03 846 24.98 16.2 61.1 45 4.4 39.9
21:10 1017 30.03 846 24.98 16.1 61.1 46 4.6 40.2
21:15 1017 30.03 846 24.98 16.1 61 46 4.5 40.1
21:20 1017 30.03 846 24.98 16.1 60.9 46 4.7 40.4
21:25 1017 30.03 846 24.98 16 60.7 46 4.6 40.2
21:30 1017 30.03 846 24.98 16 60.8 46 4.6 40.2
21:35 1017 30.03 846 24.98 16 60.8 46 4.5 40.1
21:40 1017 30.03 846 24.98 16 60.8 47 4.7 40.4
21:45 1017 30.03 846 24.98 15.9 60.7 47 4.6 40.3
21:50 1017 30.03 846 24.98 15.9 60.6 47 4.6 40.3
21:55 1017 30.03 846 24.98 15.9 60.6 46 4.5 40.2
22:00 1017 30.03 846 24.98 15.9 60.5 47 4.6 40.3
22:05 1017 30.03 846 24.98 15.9 60.6 47 4.7 40.4
22:10 1017 30.03 846 24.98 16 60.7 46 4.5 40.1
22:15 1017 30.03 846 24.98 16.1 61 46 4.6 40.2
22:20 1017 30.03 846 24.98 16.2 61.1 45 4.5 40
22:25 1017 30.03 846 24.98 16.3 61.3 45 4.5 40
22:30 1017 30.03 846 24.98 16.3 61.3 45 4.6 40.2
22:35 1016 30 846 24.98 16.2 61.2 45 4.3 39.8
22:40 1016 30 845 24.95 16.4 61.5 45 4.4 39.9
22:45 1016 30 845 24.95 16.4 61.5 45 4.5 40
22:50 1016 30 845 24.95 16.3 61.4 45 4.5 40.2
22:55 1016 30 845 24.95 16.4 61.4 44 4.3 39.7
23:00 1016 30 845 24.95 16.4 61.6 44 4.1 39.4
23:05 1015 29.97 845 24.95 16.6 61.8 44 4.4 39.9
23:10 1015 29.97 844 24.92 16.5 61.8 44 4.3 39.7
23:15 1015 29.97 844 24.92 16.5 61.7 44 4.2 39.5
23:20 1015 29.97 844 24.92 16.6 61.9 43 4.1 39.3
23:25 1015 29.97 844 24.92 16.6 61.8 43 4.2 39.6
23:30 1015 29.97 844 24.92 16.6 61.8 44 4.2 39.6
23:35 1015 29.97 844 24.92 16.5 61.7 43 4.1 39.3
23:40 1015 29.97 844 24.92 16.5 61.7 44 4.3 39.8
23:45 1015 29.97 844 24.92 16.3 61.4 45 4.5 40.1
23:50 1015 29.97 844 24.92 16.1 60.9 45 4.1 39.4
23:55 1015 29.97 844 24.92 16 60.8 45 4 39.3
24:00 1015 29.97 844 24.92 16.2 61.2 44 4.2 39.5